KCAR/CAR METAR and TAF weather

Enter ICAO airport designator
Station Type Date Time Source
KCAR METAR 2019/06/19 07:54 UTC NOAA

KCAR 190754Z AUTO 19005KT 10SM CLR 12/09 A2983 RMK AO2 SLP104 T01220089


Station Type Date Time Source
KCAR Decoded METAR 2019/06/19 07:54 UTC NOAA

CARIBOU MUNICIPAL AIRPORT, ME, United States (KCAR) 46-52N 68-01W 191M
Jun 19, 2019 - 03:54 AM EDT / 2019.06.19 0754 UTC
Wind: from the S (190 degrees) at 6 MPH (5 KT):0
Visibility: 10 mile(s):0
Sky conditions: clear
Temperature: 54.0 F (12.2 C)
Dew Point: 48.0 F (8.9 C)
Relative Humidity: 80%
Pressure (altimeter): 29.83 in. Hg (1010 hPa)
ob: KCAR 190754Z AUTO 19005KT 10SM CLR 12/09 A2983 RMK AO2 SLP104 T01220089
cycle: 8

Station Type Date Time Source
KCAR TAF 2019/06/19 06:22 UTC NOAA

TAF KCAR 190520Z 1906/2006 23004KT P6SM SKC
FM191200 00000KT P6SM VCSH BKN060
FM191700 20006KT 6SM -SHRA BKN040
FM200100 15003KT 5SM -SHRA OVC025
FM200400 08003KT 4SM -SHRA OVC017

Example: see airport list